createdAt,value
2019-03-15T00:00:17.332Z,3.90
2019-03-15T00:03:46.863Z,3.90
2019-03-15T00:07:10.802Z,3.90
2019-03-15T00:10:34.623Z,4.00
2019-03-15T00:17:30.865Z,3.90
2019-03-15T00:20:54.722Z,3.90
2019-03-15T00:24:23.129Z,3.80
2019-03-15T00:27:48.461Z,3.70
2019-03-15T00:31:12.188Z,3.70
2019-03-15T00:34:36.078Z,3.70
2019-03-15T00:38:02.923Z,3.60
2019-03-15T00:41:31.860Z,3.70
2019-03-15T00:44:57.211Z,3.70
2019-03-15T00:48:22.423Z,3.70
2019-03-15T00:51:46.366Z,3.60
2019-03-15T00:55:11.912Z,3.70
2019-03-15T00:58:35.870Z,3.70
2019-03-15T01:01:59.615Z,3.70
2019-03-15T01:05:23.376Z,3.70
2019-03-15T01:08:48.415Z,3.70
2019-03-15T01:12:13.613Z,3.80
2019-03-15T01:15:37.588Z,3.80
2019-03-15T01:19:03.007Z,3.90
2019-03-15T01:22:28.622Z,3.90
2019-03-15T01:25:55.186Z,3.90
2019-03-15T01:29:19.163Z,3.80
2019-03-15T01:32:43.049Z,3.80
2019-03-15T01:36:06.778Z,3.80
2019-03-15T01:39:32.372Z,3.70
2019-03-15T01:42:57.645Z,3.70
2019-03-15T01:46:24.169Z,3.70
2019-03-15T01:49:49.365Z,3.80
2019-03-15T01:53:15.240Z,3.90
2019-03-15T01:56:39.029Z,3.90
2019-03-15T02:00:06.039Z,3.80
2019-03-15T02:03:29.956Z,3.80
2019-03-15T02:06:55.231Z,3.80
2019-03-15T02:10:22.368Z,3.80
2019-03-15T02:13:46.413Z,3.70
2019-03-15T02:17:11.916Z,3.70
2019-03-15T02:20:35.907Z,3.60
2019-03-15T02:24:02.338Z,3.50
2019-03-15T02:27:27.642Z,3.50
2019-03-15T02:30:54.000Z,3.60
2019-03-15T02:34:17.786Z,3.70
2019-03-15T02:37:41.969Z,5.00
2019-03-15T02:41:05.758Z,5.10
2019-03-15T02:44:30.321Z,5.00
2019-03-15T02:47:53.975Z,5.10
2019-03-15T02:51:17.797Z,5.10
2019-03-15T02:54:44.374Z,5.20
2019-03-15T02:58:13.281Z,5.30
2019-03-15T03:01:39.769Z,5.50
2019-03-15T03:05:04.672Z,6.00
2019-03-15T03:08:31.570Z,9.20
2019-03-15T03:11:55.433Z,10.00
2019-03-15T03:15:22.555Z,10.30
2019-03-15T03:18:46.285Z,10.20
2019-03-15T03:22:13.158Z,10.30
2019-03-15T03:25:37.237Z,10.40
2019-03-15T03:29:01.183Z,10.50
2019-03-15T03:32:26.573Z,10.50
2019-03-15T03:35:52.961Z,10.80
2019-03-15T03:39:16.615Z,10.60
2019-03-15T03:42:40.580Z,10.90
2019-03-15T03:46:04.692Z,10.70
2019-03-15T03:49:28.790Z,10.70
2019-03-15T03:52:52.628Z,10.70
2019-03-15T03:56:18.385Z,10.90
2019-03-15T03:59:44.408Z,11.00
2019-03-15T04:03:08.558Z,11.00
2019-03-15T04:06:33.811Z,11.10
2019-03-15T04:09:58.699Z,11.20
2019-03-15T04:13:22.493Z,11.90
2019-03-15T04:16:49.018Z,12.30
2019-03-15T04:20:13.291Z,12.80
2019-03-15T04:23:38.389Z,13.90
2019-03-15T04:27:06.364Z,14.60
2019-03-15T04:30:33.158Z,15.00
2019-03-15T04:33:57.066Z,15.30
2019-03-15T04:37:22.953Z,15.50
2019-03-15T04:40:49.980Z,15.60
2019-03-15T04:44:13.719Z,15.70
2019-03-15T04:47:37.483Z,15.70
2019-03-15T04:51:05.222Z,15.70
2019-03-15T04:54:30.479Z,15.70
2019-03-15T04:57:54.103Z,15.60
2019-03-15T05:01:22.319Z,15.60
2019-03-15T05:04:48.505Z,15.50
2019-03-15T05:08:19.655Z,15.40
2019-03-15T05:11:46.121Z,15.30
2019-03-15T05:15:15.600Z,15.20
2019-03-15T05:18:41.048Z,15.10
2019-03-15T05:22:06.439Z,15.10
2019-03-15T05:25:31.774Z,14.90
2019-03-15T05:28:58.849Z,14.90
2019-03-15T05:32:25.659Z,14.80
2019-03-15T05:35:49.555Z,14.70
2019-03-15T05:39:14.626Z,14.70
2019-03-15T05:42:41.564Z,14.50
2019-03-15T05:46:05.563Z,14.00
2019-03-15T05:49:33.024Z,13.50
2019-03-15T05:52:59.019Z,13.20
2019-03-15T05:56:29.287Z,12.80
2019-03-15T05:59:53.059Z,12.50
2019-03-15T06:03:17.115Z,12.30
2019-03-15T06:06:44.474Z,12.10
2019-03-15T06:10:12.858Z,11.90
2019-03-15T06:13:38.183Z,11.90
2019-03-15T06:17:02.428Z,11.80
2019-03-15T06:20:26.329Z,11.80
2019-03-15T06:23:50.324Z,11.80
2019-03-15T06:27:19.597Z,11.70
2019-03-15T06:30:46.547Z,11.70
2019-03-15T06:34:10.665Z,11.80
2019-03-15T06:37:41.912Z,11.80
2019-03-15T06:41:05.911Z,11.80
2019-03-15T06:44:29.663Z,11.90
2019-03-15T06:47:53.589Z,11.90
2019-03-15T06:51:19.213Z,12.00
2019-03-15T06:54:44.595Z,12.10
2019-03-15T06:58:08.504Z,12.10
2019-03-15T07:01:32.258Z,12.00
2019-03-15T07:05:03.764Z,11.90
2019-03-15T07:08:27.591Z,11.80
2019-03-15T07:11:51.371Z,11.90
2019-03-15T07:15:18.236Z,12.00
2019-03-15T07:18:46.779Z,12.00
2019-03-15T07:22:19.749Z,11.90
2019-03-15T07:25:46.016Z,12.00
2019-03-15T07:29:11.944Z,11.90
2019-03-15T07:32:39.022Z,12.10
2019-03-15T07:36:03.228Z,12.10
2019-03-15T07:39:28.605Z,12.10
2019-03-15T07:42:55.108Z,12.00
2019-03-15T07:46:20.357Z,12.00
2019-03-15T07:49:44.246Z,12.00
2019-03-15T07:53:14.968Z,11.90
2019-03-15T07:56:41.476Z,11.80
2019-03-15T08:00:09.551Z,11.80
2019-03-15T08:03:33.332Z,11.80
2019-03-15T08:06:57.200Z,11.70
2019-03-15T08:10:22.008Z,11.60
2019-03-15T08:13:45.671Z,11.50
2019-03-15T08:17:11.081Z,11.40
2019-03-15T08:20:35.007Z,11.40
2019-03-15T08:23:59.047Z,11.50
2019-03-15T08:27:22.781Z,11.50
2019-03-15T08:30:46.755Z,11.40
2019-03-15T08:34:14.968Z,11.30
2019-03-15T08:37:38.883Z,11.20
2019-03-15T08:41:03.091Z,11.20
2019-03-15T08:44:27.893Z,11.20
2019-03-15T08:47:53.214Z,11.30
2019-03-15T08:51:17.515Z,11.30
2019-03-15T08:54:42.735Z,11.20
2019-03-15T08:58:13.897Z,11.20
2019-03-15T09:01:32.420Z,11.60
2019-03-15T09:04:56.221Z,11.80
2019-03-15T09:08:20.162Z,12.30
2019-03-15T09:11:43.948Z,11.90
2019-03-15T09:15:12.079Z,12.00
2019-03-15T09:18:36.126Z,13.00
2019-03-15T09:22:00.760Z,14.30
2019-03-15T09:25:24.874Z,15.30
2019-03-15T09:28:48.594Z,14.40
2019-03-15T09:32:12.434Z,13.20
2019-03-15T09:35:36.285Z,12.40
2019-03-15T09:39:00.011Z,12.00
2019-03-15T09:42:24.113Z,12.20
2019-03-15T09:45:47.904Z,12.40
2019-03-15T09:49:13.276Z,12.00
2019-03-15T09:52:37.001Z,11.60
2019-03-15T09:56:00.861Z,10.90
2019-03-15T09:59:24.711Z,10.50
2019-03-15T10:02:51.873Z,10.60
2019-03-15T10:06:19.370Z,11.10
2019-03-15T10:09:46.118Z,11.20
2019-03-15T10:13:06.745Z,14.20
2019-03-15T10:16:32.090Z,14.50
2019-03-15T10:19:56.129Z,14.50
2019-03-15T10:23:19.986Z,13.30
2019-03-15T10:26:47.146Z,11.50
2019-03-15T10:30:16.385Z,11.70
2019-03-15T10:33:50.485Z,12.20
2019-03-15T10:37:11.699Z,11.10
2019-03-15T10:40:35.590Z,10.20
2019-03-15T10:44:04.313Z,9.50
2019-03-15T10:47:30.186Z,9.40
2019-03-15T10:50:56.919Z,8.80
2019-03-15T10:54:20.604Z,8.70
2019-03-15T10:57:47.247Z,8.60
2019-03-15T11:01:11.002Z,8.20
2019-03-15T11:04:34.896Z,8.00
2019-03-15T11:07:58.596Z,7.80
2019-03-15T11:11:23.946Z,7.70
2019-03-15T11:14:47.804Z,7.70
2019-03-15T11:18:11.643Z,8.10
2019-03-15T11:21:35.446Z,8.00
2019-03-15T11:24:59.296Z,8.00
2019-03-15T11:28:23.081Z,8.50
2019-03-15T11:31:47.094Z,8.50
2019-03-15T11:35:11.619Z,8.00
2019-03-15T11:38:35.444Z,7.60
2019-03-15T11:41:59.203Z,8.30
2019-03-15T11:45:23.515Z,8.80
2019-03-15T11:48:47.366Z,9.40
2019-03-15T11:52:11.087Z,9.30
2019-03-15T11:55:34.840Z,9.20
2019-03-15T11:58:58.484Z,8.30
2019-03-15T12:02:22.241Z,7.60
2019-03-15T12:05:45.921Z,7.60
2019-03-15T12:09:09.904Z,7.90
2019-03-15T12:12:35.392Z,8.20
2019-03-15T12:15:59.248Z,8.10
2019-03-15T12:19:23.019Z,8.90
2019-03-15T12:22:48.350Z,8.80
2019-03-15T12:26:12.292Z,8.30
2019-03-15T12:29:39.305Z,7.90
2019-03-15T12:33:03.452Z,7.70
2019-03-15T12:36:27.487Z,7.30
2019-03-15T12:39:51.705Z,7.00
2019-03-15T12:43:15.869Z,6.70
2019-03-15T12:46:43.329Z,6.60
2019-03-15T12:50:14.639Z,6.60
2019-03-15T12:53:38.894Z,6.60
2019-03-15T12:57:03.338Z,7.10
2019-03-15T13:00:27.628Z,7.30
2019-03-15T13:03:51.617Z,7.00
2019-03-15T13:07:15.654Z,7.10
2019-03-15T13:10:41.982Z,7.20
2019-03-15T13:14:06.572Z,7.30
2019-03-15T13:17:31.182Z,7.40
2019-03-15T13:20:55.548Z,7.40
2019-03-15T13:24:19.869Z,7.10
2019-03-15T13:27:43.741Z,6.90
2019-03-15T13:31:12.194Z,6.80
2019-03-15T13:34:36.203Z,6.90
2019-03-15T13:38:00.327Z,7.30
2019-03-15T13:41:24.777Z,7.50
2019-03-15T13:44:48.566Z,7.70
2019-03-15T13:48:12.637Z,7.50
2019-03-15T13:51:36.648Z,7.80
2019-03-15T13:55:00.435Z,7.80
2019-03-15T13:58:24.254Z,7.80
2019-03-15T14:01:48.019Z,7.50
2019-03-15T14:05:12.518Z,7.60
2019-03-15T14:08:36.366Z,7.50
2019-03-15T14:12:00.271Z,7.40
2019-03-15T14:15:24.979Z,7.40
2019-03-15T14:18:52.388Z,7.40
2019-03-15T14:22:18.070Z,7.30
2019-03-15T14:25:44.396Z,7.30
2019-03-15T14:29:08.806Z,7.30
2019-03-15T14:32:36.516Z,7.30
2019-03-15T14:36:03.857Z,7.30
2019-03-15T14:39:27.153Z,7.30
2019-03-15T14:42:51.309Z,7.30
2019-03-15T14:46:17.158Z,7.20
2019-03-15T14:49:43.806Z,7.20
2019-03-15T14:53:07.747Z,7.30
2019-03-15T14:56:32.081Z,7.40
2019-03-15T14:59:58.923Z,7.40
2019-03-15T15:03:23.119Z,7.50
2019-03-15T15:06:47.412Z,7.50
2019-03-15T15:10:18.713Z,7.70
2019-03-15T15:13:44.180Z,8.10
2019-03-15T15:17:10.873Z,8.20
2019-03-15T15:20:36.410Z,8.10
2019-03-15T15:24:05.466Z,8.00
2019-03-15T15:27:31.094Z,7.80
2019-03-15T15:30:57.042Z,7.70
2019-03-15T15:34:22.685Z,7.60
2019-03-15T15:37:49.195Z,7.50
2019-03-15T15:41:17.046Z,7.50
2019-03-15T15:44:43.288Z,7.40
2019-03-15T15:48:07.475Z,7.30
2019-03-15T15:51:31.418Z,7.30
2019-03-15T15:54:55.223Z,7.30
2019-03-15T15:58:19.059Z,7.20
2019-03-15T16:01:43.225Z,7.10
2019-03-15T16:05:08.759Z,6.90
2019-03-15T16:08:33.048Z,6.90
2019-03-15T16:11:57.026Z,7.00
2019-03-15T16:15:21.028Z,7.00
2019-03-15T16:18:45.274Z,6.90
2019-03-15T16:22:09.063Z,6.80
2019-03-15T16:25:32.851Z,6.70
2019-03-15T16:28:56.729Z,6.50
2019-03-15T16:32:21.644Z,6.40
2019-03-15T16:35:46.082Z,6.30
2019-03-15T16:39:10.177Z,6.30
2019-03-15T16:42:33.986Z,6.10
2019-03-15T16:45:59.347Z,6.10
2019-03-15T16:49:23.423Z,5.90
2019-03-15T16:52:47.758Z,5.70
2019-03-15T16:56:14.863Z,5.60
2019-03-15T16:59:38.801Z,5.50
2019-03-15T17:03:02.719Z,5.40
2019-03-15T17:06:26.849Z,5.30
2019-03-15T17:09:50.829Z,5.20
2019-03-15T17:13:14.690Z,5.10
2019-03-15T17:16:38.911Z,5.10
2019-03-15T17:20:03.244Z,5.10
2019-03-15T17:23:27.148Z,5.10
2019-03-15T17:26:51.793Z,5.10
2019-03-15T17:30:17.923Z,5.00
2019-03-15T17:33:45.308Z,5.00
2019-03-15T17:37:09.989Z,5.10
2019-03-15T17:40:34.483Z,5.20
2019-03-15T17:43:58.652Z,5.30
2019-03-15T17:47:25.418Z,5.30
2019-03-15T17:50:49.491Z,5.20
2019-03-15T17:54:13.970Z,5.20
2019-03-15T17:57:39.950Z,5.20
2019-03-15T18:01:04.451Z,5.30
2019-03-15T18:04:29.793Z,5.20
2019-03-15T18:07:54.062Z,5.30
2019-03-15T18:11:18.033Z,5.30
2019-03-15T18:14:42.741Z,5.40
2019-03-15T18:18:09.133Z,5.50
2019-03-15T18:21:33.101Z,5.50
2019-03-15T18:25:00.076Z,5.40
2019-03-15T18:28:23.919Z,5.50
2019-03-15T18:31:48.116Z,5.60
2019-03-15T18:35:12.560Z,5.60
2019-03-15T18:38:36.724Z,5.60
2019-03-15T18:42:00.823Z,5.60
2019-03-15T18:45:24.779Z,5.70
2019-03-15T18:48:49.275Z,5.90
2019-03-15T18:52:13.158Z,5.80
2019-03-15T18:55:37.260Z,5.80
2019-03-15T18:59:01.285Z,5.80
2019-03-15T19:02:25.331Z,5.70
2019-03-15T19:05:49.069Z,5.80
2019-03-15T19:09:13.131Z,5.80
2019-03-15T19:12:38.505Z,5.80
2019-03-15T19:16:05.089Z,5.80
2019-03-15T19:19:29.420Z,5.70
2019-03-15T19:22:53.760Z,5.80
2019-03-15T19:26:20.215Z,5.80
2019-03-15T19:29:53.595Z,5.90
2019-03-15T19:33:10.278Z,5.70
2019-03-15T19:36:38.878Z,5.60
2019-03-15T19:40:07.384Z,5.60
2019-03-15T19:43:43.759Z,5.60
2019-03-15T19:47:07.620Z,5.60
2019-03-15T19:50:31.457Z,5.50
2019-03-15T19:53:55.269Z,5.60
2019-03-15T19:57:19.582Z,5.30
2019-03-15T20:00:43.665Z,5.10
2019-03-15T20:04:08.231Z,5.10
2019-03-15T20:07:32.153Z,5.20
2019-03-15T20:10:56.164Z,5.20
2019-03-15T20:14:20.546Z,5.20
2019-03-15T20:17:44.553Z,5.30
2019-03-15T20:21:10.569Z,5.30
2019-03-15T20:24:36.793Z,5.30
2019-03-15T20:28:04.080Z,5.30
2019-03-15T20:31:29.928Z,5.40
2019-03-15T20:34:53.740Z,5.50
2019-03-15T20:38:17.666Z,5.60
2019-03-15T20:41:41.802Z,5.60
2019-03-15T20:45:10.909Z,5.60
2019-03-15T20:48:34.776Z,5.70
2019-03-15T20:52:00.144Z,5.70
2019-03-15T20:55:23.944Z,5.70
2019-03-15T20:58:47.769Z,5.80
2019-03-15T21:02:11.722Z,5.90
2019-03-15T21:05:35.570Z,5.90
2019-03-15T21:08:59.423Z,6.00
2019-03-15T21:12:23.242Z,6.10
2019-03-15T21:15:47.973Z,6.20
2019-03-15T21:19:12.264Z,6.20
2019-03-15T21:22:36.174Z,6.20
2019-03-15T21:26:04.206Z,6.30
2019-03-15T21:29:28.202Z,6.30
2019-03-15T21:32:57.001Z,6.30
2019-03-15T21:36:20.879Z,6.30
2019-03-15T21:39:45.995Z,6.30
2019-03-15T21:43:10.665Z,6.30
2019-03-15T21:46:34.813Z,6.20
2019-03-15T21:49:58.769Z,5.90
2019-03-15T21:53:22.608Z,5.40
2019-03-15T21:56:46.522Z,5.30
2019-03-15T22:00:16.352Z,5.30
2019-03-15T22:03:40.228Z,5.30
2019-03-15T22:07:04.071Z,5.40
2019-03-15T22:10:28.274Z,5.40
2019-03-15T22:13:52.602Z,5.30
2019-03-15T22:17:16.455Z,5.20
2019-03-15T22:20:40.450Z,5.30
2019-03-15T22:24:04.623Z,5.30
2019-03-15T22:27:28.504Z,5.20
2019-03-15T22:30:53.278Z,5.10
2019-03-15T22:34:17.204Z,5.20
2019-03-15T22:37:41.173Z,5.30
2019-03-15T22:41:05.017Z,5.30
2019-03-15T22:44:29.730Z,5.30
2019-03-15T22:47:53.597Z,5.40
2019-03-15T22:51:17.492Z,5.50
2019-03-15T22:54:41.501Z,5.50
2019-03-15T22:58:05.321Z,5.50
2019-03-15T23:01:30.650Z,5.50
2019-03-15T23:04:54.779Z,5.40
2019-03-15T23:08:19.015Z,5.40
2019-03-15T23:11:42.762Z,5.50
2019-03-15T23:15:08.780Z,5.60
2019-03-15T23:18:32.663Z,5.60
2019-03-15T23:21:56.543Z,5.60
2019-03-15T23:25:20.293Z,5.60
2019-03-15T23:28:47.085Z,5.60
2019-03-15T23:32:12.871Z,5.60
2019-03-15T23:35:52.818Z,5.50
2019-03-15T23:39:02.151Z,5.60
2019-03-15T23:42:26.097Z,5.60
2019-03-15T23:45:49.953Z,5.60
2019-03-15T23:49:13.673Z,5.50
2019-03-15T23:52:37.468Z,5.60
2019-03-15T23:56:01.265Z,5.50
2019-03-15T23:59:25.130Z,5.50
